sensor_id;sensor_type;location;lat;lon;timestamp;pressure;altitude;pressure_sealevel;temperature;humidity
6528;BME280;64597;42.664;23.256;2023-05-19T00:00:42;94783.31;;;11.61;74.90
6528;BME280;64597;42.664;23.256;2023-05-19T00:03:11;94801.53;;;11.74;74.81
6528;BME280;64597;42.664;23.256;2023-05-19T00:05:41;94811.88;;;11.64;75.62
6528;BME280;64597;42.664;23.256;2023-05-19T00:08:10;94808.81;;;11.67;75.55
6528;BME280;64597;42.664;23.256;2023-05-19T00:10:37;94809.00;;;11.66;75.39
6528;BME280;64597;42.664;23.256;2023-05-19T00:13:03;94804.56;;;11.66;75.25
6528;BME280;64597;42.664;23.256;2023-05-19T00:15:29;94804.09;;;11.69;74.89
6528;BME280;64597;42.664;23.256;2023-05-19T00:17:54;94805.25;;;11.73;74.93
6528;BME280;64597;42.664;23.256;2023-05-19T00:20:20;94796.75;;;11.71;75.00
6528;BME280;64597;42.664;23.256;2023-05-19T00:22:46;94788.44;;;11.79;75.24
6528;BME280;64597;42.664;23.256;2023-05-19T00:25:11;94808.75;;;11.79;75.31
6528;BME280;64597;42.664;23.256;2023-05-19T00:27:36;94794.75;;;11.78;75.24
6528;BME280;64597;42.664;23.256;2023-05-19T00:30:02;94789.56;;;11.83;74.96
6528;BME280;64597;42.664;23.256;2023-05-19T00:32:28;94787.16;;;11.82;74.40
6528;BME280;64597;42.664;23.256;2023-05-19T00:34:53;94780.53;;;11.68;74.04
6528;BME280;64597;42.664;23.256;2023-05-19T00:37:19;94602.91;;;10.59;74.29
6528;BME280;64597;42.664;23.256;2023-05-19T00:39:44;94787.31;;;11.75;74.53
6528;BME280;64597;42.664;23.256;2023-05-19T00:42:10;94790.03;;;11.80;74.55
6528;BME280;64597;42.664;23.256;2023-05-19T00:44:39;94776.56;;;11.82;74.92
6528;BME280;64597;42.664;23.256;2023-05-19T00:47:06;94758.72;;;11.72;74.81
6528;BME280;64597;42.664;23.256;2023-05-19T00:49:31;94779.00;;;11.83;74.97
6528;BME280;64597;42.664;23.256;2023-05-19T00:51:57;94779.00;;;11.83;74.56
6528;BME280;64597;42.664;23.256;2023-05-19T00:54:23;94745.63;;;11.66;74.44
6528;BME280;64597;42.664;23.256;2023-05-19T00:56:49;94772.66;;;11.84;74.83
6528;BME280;64597;42.664;23.256;2023-05-19T00:59:15;94772.91;;;11.83;74.09
6528;BME280;64597;42.664;23.256;2023-05-19T01:01:40;94772.59;;;11.79;73.98
6528;BME280;64597;42.664;23.256;2023-05-19T01:04:06;94777.88;;;11.79;73.87
6528;BME280;64597;42.664;23.256;2023-05-19T01:06:35;94781.09;;;11.81;73.96
6528;BME280;64597;42.664;23.256;2023-05-19T01:09:03;94787.06;;;11.77;74.19
6528;BME280;64597;42.664;23.256;2023-05-19T01:11:28;94778.00;;;11.73;74.05
6528;BME280;64597;42.664;23.256;2023-05-19T01:13:54;94785.38;;;11.71;74.20
6528;BME280;64597;42.664;23.256;2023-05-19T01:22:51;94784.25;;;11.67;73.95
6528;BME280;64597;42.664;23.256;2023-05-19T01:31:05;94755.94;;;11.39;74.38
6528;BME280;64597;42.664;23.256;2023-05-19T01:33:33;94781.75;;;11.48;74.39
6528;BME280;64597;42.664;23.256;2023-05-19T01:36:02;94786.22;;;11.48;74.85
6528;BME280;64597;42.664;23.256;2023-05-19T01:38:28;94784.38;;;11.48;74.18
6528;BME280;64597;42.664;23.256;2023-05-19T01:40:57;94778.19;;;11.43;74.51
6528;BME280;64597;42.664;23.256;2023-05-19T01:43:25;94784.97;;;11.39;74.39
6528;BME280;64597;42.664;23.256;2023-05-19T01:45:52;94777.53;;;11.36;74.49
6528;BME280;64597;42.664;23.256;2023-05-19T01:48:18;94786.94;;;11.32;74.45
6528;BME280;64597;42.664;23.256;2023-05-19T01:50:44;94797.03;;;11.35;74.17
6528;BME280;64597;42.664;23.256;2023-05-19T01:53:10;94787.19;;;11.30;73.96
6528;BME280;64597;42.664;23.256;2023-05-19T01:55:43;94787.75;;;11.21;74.00
6528;BME280;64597;42.664;23.256;2023-05-19T01:58:16;94810.25;;;11.23;73.97
6528;BME280;64597;42.664;23.256;2023-05-19T02:01:36;94797.16;;;11.17;74.31
6528;BME280;64597;42.664;23.256;2023-05-19T02:12:31;94792.38;;;11.02;74.47
6528;BME280;64597;42.664;23.256;2023-05-19T02:15:15;94783.44;;;10.92;74.59
6528;BME280;64597;42.664;23.256;2023-05-19T02:17:45;94789.97;;;11.01;74.43
6528;BME280;64597;42.664;23.256;2023-05-19T02:20:14;94800.53;;;11.01;74.43
6528;BME280;64597;42.664;23.256;2023-05-19T02:22:40;94800.06;;;11.04;74.69
6528;BME280;64597;42.664;23.256;2023-05-19T02:25:06;94801.09;;;11.03;74.70
6528;BME280;64597;42.664;23.256;2023-05-19T02:27:36;94796.88;;;11.02;74.98
6528;BME280;64597;42.664;23.256;2023-05-19T02:30:06;94808.00;;;11.04;74.99
6528;BME280;64597;42.664;23.256;2023-05-19T02:32:32;94798.81;;;10.95;74.35
6528;BME280;64597;42.664;23.256;2023-05-19T02:34:58;94791.91;;;10.94;74.69
6528;BME280;64597;42.664;23.256;2023-05-19T02:37:27;94799.50;;;11.02;74.53
6528;BME280;64597;42.664;23.256;2023-05-19T02:39:55;94800.19;;;10.97;74.92
6528;BME280;64597;42.664;23.256;2023-05-19T02:42:20;94800.53;;;11.01;74.66
6528;BME280;64597;42.664;23.256;2023-05-19T02:44:46;94763.75;;;10.71;74.90
6528;BME280;64597;42.664;23.256;2023-05-19T02:47:12;94810.75;;;10.97;74.58
6528;BME280;64597;42.664;23.256;2023-05-19T02:49:37;94816.00;;;10.97;74.81
6528;BME280;64597;42.664;23.256;2023-05-19T02:52:03;94814.97;;;10.98;74.95
6528;BME280;64597;42.664;23.256;2023-05-19T02:54:29;94807.88;;;10.99;75.01
6528;BME280;64597;42.664;23.256;2023-05-19T02:56:55;94810.75;;;10.97;75.04
6528;BME280;64597;42.664;23.256;2023-05-19T02:59:21;94809.22;;;10.90;74.88
6528;BME280;64597;42.664;23.256;2023-05-19T03:01:47;94815.56;;;10.89;75.17
6528;BME280;64597;42.664;23.256;2023-05-19T03:04:13;94814.41;;;10.85;75.22
6528;BME280;64597;42.664;23.256;2023-05-19T03:06:38;94804.78;;;10.78;74.84
6528;BME280;64597;42.664;23.256;2023-05-19T03:09:04;94811.78;;;10.85;75.26
6528;BME280;64597;42.664;23.256;2023-05-19T03:11:30;94820.25;;;10.87;75.36
6528;BME280;64597;42.664;23.256;2023-05-19T03:13:55;94819.22;;;10.88;75.44
6528;BME280;64597;42.664;23.256;2023-05-19T03:16:21;94822.66;;;10.88;75.51
6528;BME280;64597;42.664;23.256;2023-05-19T03:18:46;94821.19;;;10.81;75.83
6528;BME280;64597;42.664;23.256;2023-05-19T03:21:11;94826.44;;;10.81;75.70
6528;BME280;64597;42.664;23.256;2023-05-19T03:23:37;94810.97;;;10.72;75.52
6528;BME280;64597;42.664;23.256;2023-05-19T03:26:02;94820.94;;;10.82;76.21
6528;BME280;64597;42.664;23.256;2023-05-19T03:28:28;94816.34;;;10.77;76.01
6528;BME280;64597;42.664;23.256;2023-05-19T03:30:53;94823.72;;;10.87;75.80
6528;BME280;64597;42.664;23.256;2023-05-19T03:33:19;94810.50;;;10.75;76.01
6528;BME280;64597;42.664;23.256;2023-05-19T03:35:46;94817.38;;;10.76;75.87
6528;BME280;64597;42.664;23.256;2023-05-19T03:38:11;94815.19;;;10.73;76.07
6528;BME280;64597;42.664;23.256;2023-05-19T03:40:37;94823.56;;;10.82;76.46
6528;BME280;64597;42.664;23.256;2023-05-19T03:43:02;94834.47;;;10.86;76.05
6528;BME280;64597;42.664;23.256;2023-05-19T03:45:28;94804.19;;;10.76;76.34
6528;BME280;64597;42.664;23.256;2023-05-19T03:47:54;94819.34;;;10.93;76.06
6528;BME280;64597;42.664;23.256;2023-05-19T03:50:19;94816.13;;;10.91;76.40
6528;BME280;64597;42.664;23.256;2023-05-19T03:52:45;94807.06;;;10.87;75.90
6528;BME280;64597;42.664;23.256;2023-05-19T03:55:12;94825.31;;;11.00;76.19
6528;BME280;64597;42.664;23.256;2023-05-19T03:57:39;94813.94;;;10.99;76.53
6528;BME280;64597;42.664;23.256;2023-05-19T04:00:06;94828.03;;;11.05;76.24
6528;BME280;64597;42.664;23.256;2023-05-19T04:02:32;94817.50;;;11.05;76.03
6528;BME280;64597;42.664;23.256;2023-05-19T04:04:57;94793.41;;;10.90;75.95
6528;BME280;64597;42.664;23.256;2023-05-19T04:07:23;94811.88;;;11.13;75.71
6528;BME280;64597;42.664;23.256;2023-05-19T04:09:49;94812.44;;;11.15;75.63
6528;BME280;64597;42.664;23.256;2023-05-19T04:12:15;94832.94;;;11.24;75.81
6528;BME280;64597;42.664;23.256;2023-05-19T04:14:40;94827.78;;;11.29;75.68
6528;BME280;64597;42.664;23.256;2023-05-19T04:17:06;94824.56;;;11.39;75.56
6528;BME280;64597;42.664;23.256;2023-05-19T04:19:31;94830.19;;;11.42;75.46
6528;BME280;64597;42.664;23.256;2023-05-19T04:21:57;94845.75;;;11.55;75.25
6528;BME280;64597;42.664;23.256;2023-05-19T04:24:22;94784.75;;;11.29;75.82
6528;BME280;64597;42.664;23.256;2023-05-19T04:26:48;94821.75;;;11.57;75.74
6528;BME280;64597;42.664;23.256;2023-05-19T04:29:13;94833.59;;;11.66;75.47
6528;BME280;64597;42.664;23.256;2023-05-19T04:31:42;94841.84;;;11.81;74.86
6528;BME280;64597;42.664;23.256;2023-05-19T04:34:08;94845.13;;;11.88;74.60
6528;BME280;64597;42.664;23.256;2023-05-19T04:36:34;94849.97;;;11.91;74.81
6528;BME280;64597;42.664;23.256;2023-05-19T04:38:59;94845.88;;;12.00;74.59
6528;BME280;64597;42.664;23.256;2023-05-19T04:41:27;94852.28;;;12.16;74.45
6528;BME280;64597;42.664;23.256;2023-05-19T04:43:53;94845.22;;;12.21;74.50
6528;BME280;64597;42.664;23.256;2023-05-19T04:46:18;94858.19;;;12.34;73.74
6528;BME280;64597;42.664;23.256;2023-05-19T04:48:48;94850.41;;;12.45;73.77
6528;BME280;64597;42.664;23.256;2023-05-19T04:51:15;94850.09;;;12.58;73.31
6528;BME280;64597;42.664;23.256;2023-05-19T04:53:45;94846.28;;;12.65;72.92
6528;BME280;64597;42.664;23.256;2023-05-19T04:56:10;94844.97;;;14.21;93.13
6528;BME280;64597;42.664;23.256;2023-05-19T04:58:40;94844.06;;;15.74;87.72
6528;BME280;64597;42.664;23.256;2023-05-19T05:01:05;94836.91;;;16.61;81.35
6528;BME280;64597;42.664;23.256;2023-05-19T05:03:31;94825.69;;;17.55;71.23
6528;BME280;64597;42.664;23.256;2023-05-19T05:05:58;94836.25;;;17.90;66.78
6528;BME280;64597;42.664;23.256;2023-05-19T05:08:24;94841.69;;;17.35;66.55
6528;BME280;64597;42.664;23.256;2023-05-19T05:10:50;94821.19;;;16.55;61.25
6528;BME280;64597;42.664;23.256;2023-05-19T05:13:21;94842.16;;;16.31;61.07
6528;BME280;64597;42.664;23.256;2023-05-19T05:15:47;94809.56;;;15.84;60.79
6528;BME280;64597;42.664;23.256;2023-05-19T05:18:13;94845.75;;;15.95;61.26
6528;BME280;64597;42.664;23.256;2023-05-19T05:20:41;94843.53;;;15.77;61.71
6528;BME280;64597;42.664;23.256;2023-05-19T05:23:10;94819.00;;;15.54;61.77
6528;BME280;64597;42.664;23.256;2023-05-19T05:25:40;94836.53;;;15.55;61.61
6528;BME280;64597;42.664;23.256;2023-05-19T05:28:06;94708.50;;;14.65;61.62
6528;BME280;64597;42.664;23.256;2023-05-19T05:30:32;94839.16;;;15.50;62.27
6528;BME280;64597;42.664;23.256;2023-05-19T05:33:01;94823.75;;;15.47;62.02
6528;BME280;64597;42.664;23.256;2023-05-19T05:35:27;94819.66;;;15.40;62.01
6528;BME280;64597;42.664;23.256;2023-05-19T05:37:53;94827.72;;;15.50;62.33
6528;BME280;64597;42.664;23.256;2023-05-19T05:40:19;94841.91;;;15.65;62.63
6528;BME280;64597;42.664;23.256;2023-05-19T05:42:44;94848.81;;;15.66;62.45
6528;BME280;64597;42.664;23.256;2023-05-19T05:45:10;94825.38;;;15.58;62.34
6528;BME280;64597;42.664;23.256;2023-05-19T05:47:36;94845.69;;;15.85;62.73
6528;BME280;64597;42.664;23.256;2023-05-19T05:50:03;94845.78;;;16.05;62.36
6528;BME280;64597;42.664;23.256;2023-05-19T05:52:33;94820.81;;;16.16;62.01
6528;BME280;64597;42.664;23.256;2023-05-19T05:55:00;94844.34;;;16.54;60.73
6528;BME280;64597;42.664;23.256;2023-05-19T05:57:25;94848.09;;;16.63;60.17
6528;BME280;64597;42.664;23.256;2023-05-19T05:59:51;94844.38;;;16.89;60.17
6528;BME280;64597;42.664;23.256;2023-05-19T06:02:16;94837.47;;;17.08;59.16
6528;BME280;64597;42.664;23.256;2023-05-19T06:04:42;94850.25;;;17.52;58.71
6528;BME280;64597;42.664;23.256;2023-05-19T06:07:08;94850.19;;;17.72;58.23
6528;BME280;64597;42.664;23.256;2023-05-19T06:09:37;94867.13;;;18.01;57.18
6528;BME280;64597;42.664;23.256;2023-05-19T06:12:03;94811.09;;;18.01;54.99
6528;BME280;64597;42.664;23.256;2023-05-19T06:14:28;94837.91;;;18.35;53.80
6528;BME280;64597;42.664;23.256;2023-05-19T06:16:57;94856.56;;;18.50;53.75
6528;BME280;64597;42.664;23.256;2023-05-19T06:19:22;94852.38;;;18.77;54.20
6528;BME280;64597;42.664;23.256;2023-05-19T06:21:50;94864.78;;;19.31;52.82
6528;BME280;64597;42.664;23.256;2023-05-19T06:24:15;94843.72;;;19.53;49.66
6528;BME280;64597;42.664;23.256;2023-05-19T06:26:44;94832.34;;;19.42;50.04
6528;BME280;64597;42.664;23.256;2023-05-19T06:29:09;94834.06;;;19.57;50.31
6528;BME280;64597;42.664;23.256;2023-05-19T06:31:38;94823.72;;;19.74;49.39
6528;BME280;64597;42.664;23.256;2023-05-19T06:34:04;94853.22;;;19.93;49.37
6528;BME280;64597;42.664;23.256;2023-05-19T06:36:29;94814.56;;;19.80;49.04
6528;BME280;64597;42.664;23.256;2023-05-19T06:38:55;94852.78;;;20.09;47.03
6528;BME280;64597;42.664;23.256;2023-05-19T06:41:21;94857.50;;;20.17;47.80
6528;BME280;64597;42.664;23.256;2023-05-19T06:43:47;94843.78;;;20.42;48.51
6528;BME280;64597;42.664;23.256;2023-05-19T06:46:15;94851.41;;;20.35;46.33
6528;BME280;64597;42.664;23.256;2023-05-19T06:48:41;94857.28;;;20.56;47.02
6528;BME280;64597;42.664;23.256;2023-05-19T06:51:07;94857.19;;;20.80;46.99
6528;BME280;64597;42.664;23.256;2023-05-19T06:53:37;94854.22;;;21.00;45.74
6528;BME280;64597;42.664;23.256;2023-05-19T06:56:03;94853.84;;;21.25;45.33
6528;BME280;64597;42.664;23.256;2023-05-19T06:58:28;94860.75;;;21.45;45.79
6528;BME280;64597;42.664;23.256;2023-05-19T07:00:53;94806.91;;;21.41;44.47
6528;BME280;64597;42.664;23.256;2023-05-19T07:03:31;94844.72;;;21.72;43.72
6528;BME280;64597;42.664;23.256;2023-05-19T07:05:57;94865.44;;;21.85;43.98
6528;BME280;64597;42.664;23.256;2023-05-19T07:08:25;94854.81;;;22.07;43.81
6528;BME280;64597;42.664;23.256;2023-05-19T07:10:52;94869.22;;;22.65;43.95
6528;BME280;64597;42.664;23.256;2023-05-19T07:13:18;94879.22;;;22.87;41.72
6528;BME280;64597;42.664;23.256;2023-05-19T07:15:46;94852.59;;;22.50;41.12
6528;BME280;64597;42.664;23.256;2023-05-19T07:18:16;94869.66;;;22.59;41.14
6528;BME280;64597;42.664;23.256;2023-05-19T07:20:42;94870.81;;;23.02;41.08
6528;BME280;64597;42.664;23.256;2023-05-19T07:23:10;94873.41;;;23.51;39.82
6528;BME280;64597;42.664;23.256;2023-05-19T07:25:35;94855.00;;;23.67;40.72
6528;BME280;64597;42.664;23.256;2023-05-19T07:28:01;94862.38;;;23.92;39.90
6528;BME280;64597;42.664;23.256;2023-05-19T07:30:27;94875.38;;;24.21;38.79
6528;BME280;64597;42.664;23.256;2023-05-19T07:32:53;94871.91;;;24.29;38.82
6528;BME280;64597;42.664;23.256;2023-05-19T07:35:19;94868.84;;;24.61;37.77
6528;BME280;64597;42.664;23.256;2023-05-19T07:37:47;94865.97;;;24.49;37.31
6528;BME280;64597;42.664;23.256;2023-05-19T07:40:12;94862.88;;;24.16;37.33
6528;BME280;64597;42.664;23.256;2023-05-19T07:42:38;94875.91;;;24.01;37.13
6528;BME280;64597;42.664;23.256;2023-05-19T07:45:03;94870.19;;;23.94;37.89
6528;BME280;64597;42.664;23.256;2023-05-19T07:47:29;94875.09;;;23.92;37.16
6528;BME280;64597;42.664;23.256;2023-05-19T07:49:55;94870.56;;;23.79;38.27
6528;BME280;64597;42.664;23.256;2023-05-19T07:52:20;94861.91;;;23.59;39.05
6528;BME280;64597;42.664;23.256;2023-05-19T07:54:46;94875.03;;;23.52;38.75
6528;BME280;64597;42.664;23.256;2023-05-19T07:57:11;94873.00;;;23.36;38.71
6528;BME280;64597;42.664;23.256;2023-05-19T07:59:38;94868.25;;;23.86;38.18
6528;BME280;64597;42.664;23.256;2023-05-19T08:02:04;94871.88;;;24.12;37.60
6528;BME280;64597;42.664;23.256;2023-05-19T08:04:30;94867.72;;;24.53;37.30
6528;BME280;64597;42.664;23.256;2023-05-19T08:06:56;94862.66;;;24.13;37.90
6528;BME280;64597;42.664;23.256;2023-05-19T08:09:21;94861.63;;;23.92;38.22
6528;BME280;64597;42.664;23.256;2023-05-19T08:11:47;94862.72;;;23.91;39.20
6528;BME280;64597;42.664;23.256;2023-05-19T08:14:13;94868.25;;;23.94;39.57
6528;BME280;64597;42.664;23.256;2023-05-19T08:16:38;94869.59;;;23.74;39.49
6528;BME280;64597;42.664;23.256;2023-05-19T08:19:06;94860.38;;;23.98;39.29
6528;BME280;64597;42.664;23.256;2023-05-19T08:21:31;94847.59;;;24.03;37.20
6528;BME280;64597;42.664;23.256;2023-05-19T08:24:00;94862.09;;;24.33;39.19
6528;BME280;64597;42.664;23.256;2023-05-19T08:26:27;94852.34;;;24.63;39.34
6528;BME280;64597;42.664;23.256;2023-05-19T08:28:52;94861.00;;;24.99;38.12
6528;BME280;64597;42.664;23.256;2023-05-19T08:31:18;94847.66;;;25.19;37.43
6528;BME280;64597;42.664;23.256;2023-05-19T08:33:44;94851.94;;;25.55;44.95
6528;BME280;64597;42.664;23.256;2023-05-19T08:36:10;94846.56;;;25.92;45.82
6528;BME280;64597;42.664;23.256;2023-05-19T08:38:35;94848.06;;;26.28;41.96
6528;BME280;64597;42.664;23.256;2023-05-19T08:41:01;94850.94;;;26.52;37.98
6528;BME280;64597;42.664;23.256;2023-05-19T08:43:26;94845.88;;;26.79;38.23
6528;BME280;64597;42.664;23.256;2023-05-19T08:45:52;94848.78;;;27.16;37.18
6528;BME280;64597;42.664;23.256;2023-05-19T08:48:18;94850.53;;;27.41;36.34
6528;BME280;64597;42.664;23.256;2023-05-19T08:51:00;94841.63;;;27.52;32.87
6528;BME280;64597;42.664;23.256;2023-05-19T08:53:39;94668.00;;;26.06;32.64
6528;BME280;64597;42.664;23.256;2023-05-19T08:56:19;94854.22;;;27.16;32.87
6528;BME280;64597;42.664;23.256;2023-05-19T08:58:48;94850.56;;;27.12;33.16
6528;BME280;64597;42.664;23.256;2023-05-19T09:01:14;94842.44;;;27.12;33.07
6528;BME280;64597;42.664;23.256;2023-05-19T09:03:44;94844.28;;;27.20;32.25
6528;BME280;64597;42.664;23.256;2023-05-19T09:06:10;94837.16;;;27.36;33.73
6528;BME280;64597;42.664;23.256;2023-05-19T09:08:39;94843.38;;;27.36;31.62
6528;BME280;64597;42.664;23.256;2023-05-19T09:11:05;94827.53;;;27.47;33.44
6528;BME280;64597;42.664;23.256;2023-05-19T09:13:30;94831.50;;;27.29;33.08
6528;BME280;64597;42.664;23.256;2023-05-19T09:15:57;94840.53;;;26.62;32.73
6528;BME280;64597;42.664;23.256;2023-05-19T09:18:25;94839.50;;;26.55;33.89
6528;BME280;64597;42.664;23.256;2023-05-19T09:20:55;94848.19;;;26.60;33.48
6528;BME280;64597;42.664;23.256;2023-05-19T09:23:28;94845.09;;;26.79;32.88
6528;BME280;64597;42.664;23.256;2023-05-19T09:25:55;94831.22;;;26.80;32.99
6528;BME280;64597;42.664;23.256;2023-05-19T09:28:32;94826.50;;;26.69;32.38
6528;BME280;64597;42.664;23.256;2023-05-19T09:31:07;94825.56;;;26.94;32.81
6528;BME280;64597;42.664;23.256;2023-05-19T09:33:38;94820.59;;;27.17;32.20
6528;BME280;64597;42.664;23.256;2023-05-19T09:36:04;94824.41;;;27.16;32.92
6528;BME280;64597;42.664;23.256;2023-05-19T09:38:32;94789.13;;;26.91;33.53
6528;BME280;64597;42.664;23.256;2023-05-19T09:41:00;94821.75;;;27.28;32.48
6528;BME280;64597;42.664;23.256;2023-05-19T09:43:32;94825.34;;;27.20;32.62
6528;BME280;64597;42.664;23.256;2023-05-19T09:46:09;94826.34;;;27.15;32.53
6528;BME280;64597;42.664;23.256;2023-05-19T09:48:37;94833.56;;;26.61;32.44
6528;BME280;64597;42.664;23.256;2023-05-19T09:51:06;94838.97;;;26.61;32.70
6528;BME280;64597;42.664;23.256;2023-05-19T09:53:35;94833.47;;;26.78;32.51
6528;BME280;64597;42.664;23.256;2023-05-19T09:56:01;94831.03;;;26.85;32.92
6528;BME280;64597;42.664;23.256;2023-05-19T09:58:32;94820.84;;;27.03;32.77
6528;BME280;64597;42.664;23.256;2023-05-19T10:01:01;94817.22;;;27.40;31.73
6528;BME280;64597;42.664;23.256;2023-05-19T10:03:28;94815.78;;;27.22;31.85
6528;BME280;64597;42.664;23.256;2023-05-19T10:05:55;94820.69;;;26.87;32.39
6528;BME280;64597;42.664;23.256;2023-05-19T10:08:22;94824.19;;;26.88;31.62
6528;BME280;64597;42.664;23.256;2023-05-19T10:10:50;94806.34;;;27.08;30.53
6528;BME280;64597;42.664;23.256;2023-05-19T10:13:16;94811.56;;;26.92;31.14
6528;BME280;64597;42.664;23.256;2023-05-19T10:15:42;94807.47;;;26.86;32.64
6528;BME280;64597;42.664;23.256;2023-05-19T10:18:08;94818.53;;;26.72;31.63
6528;BME280;64597;42.664;23.256;2023-05-19T10:20:34;94807.09;;;26.96;31.70
6528;BME280;64597;42.664;23.256;2023-05-19T10:23:01;94799.00;;;27.08;32.49
6528;BME280;64597;42.664;23.256;2023-05-19T10:25:30;94780.00;;;27.17;32.18
6528;BME280;64597;42.664;23.256;2023-05-19T10:28:02;94800.50;;;27.18;29.17
6528;BME280;64597;42.664;23.256;2023-05-19T10:30:34;94797.81;;;26.97;30.94
6528;BME280;64597;42.664;23.256;2023-05-19T10:33:03;94813.53;;;26.83;29.81
6528;BME280;64597;42.664;23.256;2023-05-19T10:35:51;94803.72;;;26.49;30.25
6528;BME280;64597;42.664;23.256;2023-05-19T10:38:26;94793.44;;;26.43;30.96
6528;BME280;64597;42.664;23.256;2023-05-19T10:44:08;94798.78;;;26.22;31.96
6528;BME280;64597;42.664;23.256;2023-05-19T10:46:35;94791.81;;;26.42;32.25
6528;BME280;64597;42.664;23.256;2023-05-19T10:49:01;94786.09;;;26.64;31.69
6528;BME280;64597;42.664;23.256;2023-05-19T10:51:29;94769.31;;;26.79;31.69
6528;BME280;64597;42.664;23.256;2023-05-19T10:53:55;94776.78;;;26.82;30.38
6528;BME280;64597;42.664;23.256;2023-05-19T10:56:31;94767.66;;;26.86;30.84
6528;BME280;64597;42.664;23.256;2023-05-19T10:59:02;94783.06;;;26.74;31.94
6528;BME280;64597;42.664;23.256;2023-05-19T11:01:33;94780.38;;;26.65;31.28
6528;BME280;64597;42.664;23.256;2023-05-19T11:04:09;94768.38;;;26.54;31.36
6528;BME280;64597;42.664;23.256;2023-05-19T11:06:39;94770.50;;;26.69;30.51
6528;BME280;64597;42.664;23.256;2023-05-19T11:09:12;94781.81;;;26.71;31.68
6528;BME280;64597;42.664;23.256;2023-05-19T11:11:48;94776.06;;;26.73;31.28
6528;BME280;64597;42.664;23.256;2023-05-19T11:14:17;94784.88;;;26.61;29.46
6528;BME280;64597;42.664;23.256;2023-05-19T11:16:46;94775.56;;;26.21;29.79
6528;BME280;64597;42.664;23.256;2023-05-19T11:19:25;94789.16;;;26.13;30.62
6528;BME280;64597;42.664;23.256;2023-05-19T11:21:53;94774.16;;;26.15;30.57
6528;BME280;64597;42.664;23.256;2023-05-19T11:24:47;94779.03;;;25.92;30.29
6528;BME280;64597;42.664;23.256;2023-05-19T11:29:54;94772.00;;;26.29;31.88
6528;BME280;64597;42.664;23.256;2023-05-19T11:32:21;94771.50;;;26.36;31.25
6528;BME280;64597;42.664;23.256;2023-05-19T11:34:49;94759.25;;;26.00;29.50
6528;BME280;64597;42.664;23.256;2023-05-19T11:37:15;94771.59;;;25.81;30.38
6528;BME280;64597;42.664;23.256;2023-05-19T11:39:41;94728.53;;;25.29;30.54
6528;BME280;64597;42.664;23.256;2023-05-19T11:42:08;94745.69;;;25.33;31.51
6528;BME280;64597;42.664;23.256;2023-05-19T11:44:35;94756.47;;;25.33;30.97
6528;BME280;64597;42.664;23.256;2023-05-19T11:47:00;94741.78;;;25.14;33.87
6528;BME280;64597;42.664;23.256;2023-05-19T11:49:27;94754.94;;;25.15;33.37
6528;BME280;64597;42.664;23.256;2023-05-19T11:51:53;94770.78;;;25.25;34.79
6528;BME280;64597;42.664;23.256;2023-05-19T11:54:19;94766.06;;;25.05;33.08
6528;BME280;64597;42.664;23.256;2023-05-19T11:56:44;94757.69;;;24.81;32.67
6528;BME280;64597;42.664;23.256;2023-05-19T11:59:10;94803.22;;;24.74;32.32
6528;BME280;64597;42.664;23.256;2023-05-19T12:01:36;94807.72;;;24.31;33.12
6528;BME280;64597;42.664;23.256;2023-05-19T12:04:02;94765.16;;;23.10;36.19
6528;BME280;64597;42.664;23.256;2023-05-19T12:06:32;94793.88;;;22.43;40.95
6528;BME280;64597;42.664;23.256;2023-05-19T12:08:58;94835.50;;;22.19;44.49
6528;BME280;64597;42.664;23.256;2023-05-19T12:11:27;94830.91;;;21.78;44.36
6528;BME280;64597;42.664;23.256;2023-05-19T12:13:57;94853.59;;;21.40;41.79
6528;BME280;64597;42.664;23.256;2023-05-19T12:16:23;94830.19;;;20.76;45.23
6528;BME280;64597;42.664;23.256;2023-05-19T12:18:56;94827.06;;;20.50;45.22
6528;BME280;64597;42.664;23.256;2023-05-19T12:21:21;94858.34;;;20.36;46.43
6528;BME280;64597;42.664;23.256;2023-05-19T12:23:47;94859.47;;;20.07;45.59
6528;BME280;64597;42.664;23.256;2023-05-19T12:26:13;94872.22;;;19.91;46.68
6528;BME280;64597;42.664;23.256;2023-05-19T12:28:39;94863.56;;;19.76;49.68
6528;BME280;64597;42.664;23.256;2023-05-19T12:31:05;94829.16;;;19.07;50.12
6528;BME280;64597;42.664;23.256;2023-05-19T12:33:34;94830.28;;;19.01;51.53
6528;BME280;64597;42.664;23.256;2023-05-19T12:35:59;94847.03;;;19.11;51.33
6528;BME280;64597;42.664;23.256;2023-05-19T12:38:25;94826.38;;;18.88;50.77
6528;BME280;64597;42.664;23.256;2023-05-19T12:40:51;94834.94;;;18.85;50.75
6528;BME280;64597;42.664;23.256;2023-05-19T12:43:21;94833.06;;;18.85;50.28
6528;BME280;64597;42.664;23.256;2023-05-19T12:45:47;94831.44;;;18.89;49.82
6528;BME280;64597;42.664;23.256;2023-05-19T12:48:13;94808.50;;;18.83;51.12
6528;BME280;64597;42.664;23.256;2023-05-19T12:50:44;94757.06;;;18.68;50.54
6528;BME280;64597;42.664;23.256;2023-05-19T12:53:10;94806.06;;;19.21;50.30
6528;BME280;64597;42.664;23.256;2023-05-19T12:55:40;94815.25;;;19.38;48.00
6528;BME280;64597;42.664;23.256;2023-05-19T12:58:08;94796.91;;;19.27;49.62
6528;BME280;64597;42.664;23.256;2023-05-19T13:00:42;94799.53;;;19.32;47.97
6528;BME280;64597;42.664;23.256;2023-05-19T13:03:17;94805.66;;;19.37;47.91
6528;BME280;64597;42.664;23.256;2023-05-19T13:05:45;94801.03;;;19.43;47.94
6528;BME280;64597;42.664;23.256;2023-05-19T13:10:38;94790.94;;;19.63;47.69
6528;BME280;64597;42.664;23.256;2023-05-19T13:13:05;94791.75;;;19.64;45.95
6528;BME280;64597;42.664;23.256;2023-05-19T13:15:33;94778.88;;;19.66;45.38
6528;BME280;64597;42.664;23.256;2023-05-19T13:18:01;94775.34;;;19.70;44.63
6528;BME280;64597;42.664;23.256;2023-05-19T13:20:28;94779.69;;;19.85;45.20
6528;BME280;64597;42.664;23.256;2023-05-19T13:22:54;94773.31;;;19.81;45.20
6528;BME280;64597;42.664;23.256;2023-05-19T13:25:20;94732.81;;;19.69;45.03
6528;BME280;64597;42.664;23.256;2023-05-19T13:27:47;94783.44;;;20.08;43.94
6528;BME280;64597;42.664;23.256;2023-05-19T13:30:14;94781.78;;;20.12;43.83